Hauptseite
METAR-TAF:

METAR-TAF

Flughäfen :

Flughafen Guernsey

Guernsey,

Breite: 49-26N, Länge: 002-36W, Höhe: 102 m

Beobachtung

Neuester Wetterbericht von vor 14 Minuten, um 11:20 UTC
Wind 17 kt aus Südwest
Temperatur 19°C
Luftfeuchtigkeit 83%
Luftdruck 1016 hPa
Sichtweite 10 km oder mehr
Durchbrochene Bewölkung in der Höhe von 2400 ft

METAR: EGJB 191120Z 22017KT 9999 BKN024 19/16 Q1016

Zeit: 12:34 (11:34 UTC)

Prognose

Neuester Wetterbericht von vor 3 Stunden und 33 Minuten, um 08:01 UTC
Gültige Prognose vom 19 um 09 UTC bis 19 um 18 UTC
Wind 15 kt aus Südwest
Sichtweite 10 km oder mehr
Leicht bewölkt in der Höhe von 1000 ft
Durchbrochene Bewölkung in der Höhe von 1500 ft
Übergehend zu
vom 19 um 10 UTC bis 19 um 12 UTC
Durchbrochene Bewölkung in der Höhe von 1500 ft

TAF: EGJB 190801Z 1909/1918 23015KT 9999 FEW010 BKN015 BECMG 1910/1912 BKN015

Wetterbeobachtungen und Prognosen von mehr als 4000 Flughäfen (METAR und TAF Bericht).

Die verfügbaren Stationen werden durch gelbe und rote Markierungen auf der Karte dargestellt.

Führen Sie die Maus auf sie, um den Namen der Station zu sehen.

Darauf klicken, um die Beobachtung von Wetterbeobachtungen und Prognosen zu sehen.

Um die Karte zu ändern : klicken Sie auf den grünen Tasten mit einem schwarzen Kreuz Zum Vergrößern, auf den grünen Button mit einem Gedankenstrich zu verkleinern, oder auf die grünen Pfeile für benachbarte Karten.


METAR-TAF: